<?xml version="1.0" encoding="utf-8"?>
<gpx xmlns:xsi="http://www.w3.org/2001/XMLSchema-instance" xmlns:xsd="http://www.w3.org/2001/XMLSchema" version="1.1" creator="Shapelink.com" xmlns="http://www.topografix.com/GPX/1/1" xmlns:gpxtpx="http://www.garmin.com/xmlschemas/TrackPointExtension/v1">
  <metadata>
    <name>Løping 2.01 km, 2012-03-11</name>
    <desc></desc>
    <author><name>Mikael Blom</name></author> 
    <time>2012-03-11T13:03:58Z</time>
  </metadata>
  <trk>
    <name>Løping 2.01 km, 2012-03-11</name>
    <trkseg>
      <trkpt lat="59.9997191" lon="17.7369502">
        <ele>51.5679</ele>
        <time>2012-03-11T13:03:58Z</time>
      </trkpt>
      <trkpt lat="59.999629" lon="17.7368901">
        <ele>52.5292</ele>
        <time>2012-03-11T13:04:01Z</time>
      </trkpt>
      <trkpt lat="59.9994254" lon="17.7368886">
        <ele>54.9324</ele>
        <time>2012-03-11T13:04:07Z</time>
      </trkpt>
      <trkpt lat="59.9993434" lon="17.7368865">
        <ele>56.8551</ele>
        <time>2012-03-11T13:04:10Z</time>
      </trkpt>
      <trkpt lat="59.9991778" lon="17.7368414">
        <ele>58.2971</ele>
        <time>2012-03-11T13:04:16Z</time>
      </trkpt>
      <trkpt lat="59.9990478" lon="17.7368382">
        <ele>59.7391</ele>
        <time>2012-03-11T13:04:20Z</time>
      </trkpt>
      <trkpt lat="59.9988901" lon="17.7368171">
        <ele>60.2197</ele>
        <time>2012-03-11T13:04:25Z</time>
      </trkpt>
      <trkpt lat="59.9987774" lon="17.7367965">
        <ele>61.181</ele>
        <time>2012-03-11T13:04:29Z</time>
      </trkpt>
      <trkpt lat="59.9986728" lon="17.7367503">
        <ele>61.181</ele>
        <time>2012-03-11T13:04:33Z</time>
      </trkpt>
      <trkpt lat="59.9985729" lon="17.7367358">
        <ele>60.7003</ele>
        <time>2012-03-11T13:04:37Z</time>
      </trkpt>
      <trkpt lat="59.9984206" lon="17.7367133">
        <ele>64.0651</ele>
        <time>2012-03-11T13:04:42Z</time>
      </trkpt>
      <trkpt lat="59.9982554" lon="17.7366905">
        <ele>68.3909</ele>
        <time>2012-03-11T13:04:48Z</time>
      </trkpt>
      <trkpt lat="59.9981252" lon="17.7366803">
        <ele>70.3135</ele>
        <time>2012-03-11T13:04:53Z</time>
      </trkpt>
      <trkpt lat="59.9979647" lon="17.7366772">
        <ele>72.7169</ele>
        <time>2012-03-11T13:04:59Z</time>
      </trkpt>
      <trkpt lat="59.9978362" lon="17.7366934">
        <ele>73.6782</ele>
        <time>2012-03-11T13:05:04Z</time>
      </trkpt>
      <trkpt lat="59.9977361" lon="17.7366964">
        <ele>74.1588</ele>
        <time>2012-03-11T13:05:08Z</time>
      </trkpt>
      <trkpt lat="59.9976435" lon="17.7367201">
        <ele>73.6782</ele>
        <time>2012-03-11T13:05:12Z</time>
      </trkpt>
      <trkpt lat="59.9975523" lon="17.736685">
        <ele>71.7555</ele>
        <time>2012-03-11T13:05:16Z</time>
      </trkpt>
      <trkpt lat="59.9974281" lon="17.7366851">
        <ele>70.7942</ele>
        <time>2012-03-11T13:05:21Z</time>
      </trkpt>
      <trkpt lat="59.9972845" lon="17.7366639">
        <ele>66.949</ele>
        <time>2012-03-11T13:05:27Z</time>
      </trkpt>
      <trkpt lat="59.9972472" lon="17.7366358">
        <ele>65.9877</ele>
        <time>2012-03-11T13:05:29Z</time>
      </trkpt>
      <trkpt lat="59.9971037" lon="17.736595">
        <ele>64.5457</ele>
        <time>2012-03-11T13:05:35Z</time>
      </trkpt>
      <trkpt lat="59.9970116" lon="17.7365779">
        <ele>62.1423</ele>
        <time>2012-03-11T13:05:39Z</time>
      </trkpt>
      <trkpt lat="59.9968721" lon="17.7365529">
        <ele>60.2197</ele>
        <time>2012-03-11T13:05:45Z</time>
      </trkpt>
      <trkpt lat="59.9968281" lon="17.7365342">
        <ele>60.2197</ele>
        <time>2012-03-11T13:05:47Z</time>
      </trkpt>
      <trkpt lat="59.9966929" lon="17.7364992">
        <ele>58.2971</ele>
        <time>2012-03-11T13:05:53Z</time>
      </trkpt>
      <trkpt lat="59.9965468" lon="17.7364168">
        <ele>58.2971</ele>
        <time>2012-03-11T13:05:59Z</time>
      </trkpt>
      <trkpt lat="59.9964386" lon="17.7363238">
        <ele>56.8551</ele>
        <time>2012-03-11T13:06:04Z</time>
      </trkpt>
      <trkpt lat="59.9962722" lon="17.7362504">
        <ele>59.7391</ele>
        <time>2012-03-11T13:06:10Z</time>
      </trkpt>
      <trkpt lat="59.9961749" lon="17.7361771">
        <ele>60.7003</ele>
        <time>2012-03-11T13:06:14Z</time>
      </trkpt>
      <trkpt lat="59.9960231" lon="17.7361302">
        <ele>65.5071</ele>
        <time>2012-03-11T13:06:19Z</time>
      </trkpt>
      <trkpt lat="59.9958531" lon="17.7361357">
        <ele>72.2362</ele>
        <time>2012-03-11T13:06:24Z</time>
      </trkpt>
      <trkpt lat="59.9957771" lon="17.7361909">
        <ele>71.7555</ele>
        <time>2012-03-11T13:06:27Z</time>
      </trkpt>
      <trkpt lat="59.9956322" lon="17.7362255">
        <ele>69.3523</ele>
        <time>2012-03-11T13:06:33Z</time>
      </trkpt>
      <trkpt lat="59.995492" lon="17.7362359">
        <ele>71.2749</ele>
        <time>2012-03-11T13:06:38Z</time>
      </trkpt>
      <trkpt lat="59.9953617" lon="17.7362264">
        <ele>69.3523</ele>
        <time>2012-03-11T13:06:43Z</time>
      </trkpt>
      <trkpt lat="59.9952021" lon="17.7362245">
        <ele>68.3909</ele>
        <time>2012-03-11T13:06:49Z</time>
      </trkpt>
      <trkpt lat="59.9951121" lon="17.7362023">
        <ele>66.4683</ele>
        <time>2012-03-11T13:06:53Z</time>
      </trkpt>
      <trkpt lat="59.9949857" lon="17.7361566">
        <ele>63.1036</ele>
        <time>2012-03-11T13:06:59Z</time>
      </trkpt>
      <trkpt lat="59.9948776" lon="17.7360922">
        <ele>60.2197</ele>
        <time>2012-03-11T13:07:04Z</time>
      </trkpt>
      <trkpt lat="59.9948554" lon="17.7360738">
        <ele>59.2584</ele>
        <time>2012-03-11T13:07:05Z</time>
      </trkpt>
      <trkpt lat="59.9947213" lon="17.7360433">
        <ele>61.181</ele>
        <time>2012-03-11T13:07:10Z</time>
      </trkpt>
      <trkpt lat="59.9946261" lon="17.735981">
        <ele>61.181</ele>
        <time>2012-03-11T13:07:14Z</time>
      </trkpt>
      <trkpt lat="59.9945147" lon="17.7358786">
        <ele>58.7777</ele>
        <time>2012-03-11T13:07:19Z</time>
      </trkpt>
      <trkpt lat="59.9944914" lon="17.7358624">
        <ele>58.7777</ele>
        <time>2012-03-11T13:07:20Z</time>
      </trkpt>
      <trkpt lat="59.9943578" lon="17.7357743">
        <ele>55.4131</ele>
        <time>2012-03-11T13:07:26Z</time>
      </trkpt>
      <trkpt lat="59.9942588" lon="17.7357578">
        <ele>53.9712</ele>
        <time>2012-03-11T13:07:30Z</time>
      </trkpt>
      <trkpt lat="59.9940843" lon="17.7357527">
        <ele>58.7777</ele>
        <time>2012-03-11T13:07:36Z</time>
      </trkpt>
      <trkpt lat="59.9939708" lon="17.7357486">
        <ele>61.6617</ele>
        <time>2012-03-11T13:07:40Z</time>
      </trkpt>
      <trkpt lat="59.9938776" lon="17.7356749">
        <ele>63.1036</ele>
        <time>2012-03-11T13:07:44Z</time>
      </trkpt>
      <trkpt lat="59.9938086" lon="17.7356509">
        <ele>62.6229</ele>
        <time>2012-03-11T13:07:47Z</time>
      </trkpt>
      <trkpt lat="59.9936802" lon="17.7356489">
        <ele>62.6229</ele>
        <time>2012-03-11T13:07:52Z</time>
      </trkpt>
      <trkpt lat="59.9936044" lon="17.7356655">
        <ele>62.6229</ele>
        <time>2012-03-11T13:07:55Z</time>
      </trkpt>
      <trkpt lat="59.993508" lon="17.7356785">
        <ele>60.7003</ele>
        <time>2012-03-11T13:08:00Z</time>
      </trkpt>
      <trkpt lat="59.9934077" lon="17.7357241">
        <ele>63.5844</ele>
        <time>2012-03-11T13:08:04Z</time>
      </trkpt>
      <trkpt lat="59.9932996" lon="17.7358074">
        <ele>65.0264</ele>
        <time>2012-03-11T13:08:09Z</time>
      </trkpt>
      <trkpt lat="59.993221" lon="17.7359554">
        <ele>63.1036</ele>
        <time>2012-03-11T13:08:14Z</time>
      </trkpt>
      <trkpt lat="59.993144" lon="17.7360785">
        <ele>63.1036</ele>
        <time>2012-03-11T13:08:18Z</time>
      </trkpt>
      <trkpt lat="59.9930415" lon="17.7362717">
        <ele>62.1423</ele>
        <time>2012-03-11T13:08:24Z</time>
      </trkpt>
      <trkpt lat="59.9930055" lon="17.7363696">
        <ele>58.2971</ele>
        <time>2012-03-11T13:08:28Z</time>
      </trkpt>
      <trkpt lat="59.9929207" lon="17.7365335">
        <ele>56.8551</ele>
        <time>2012-03-11T13:08:34Z</time>
      </trkpt>
      <trkpt lat="59.9928711" lon="17.7366638">
        <ele>55.8938</ele>
        <time>2012-03-11T13:08:38Z</time>
      </trkpt>
      <trkpt lat="59.9928026" lon="17.7367845">
        <ele>55.8938</ele>
        <time>2012-03-11T13:08:42Z</time>
      </trkpt>
      <trkpt lat="59.9927334" lon="17.7369569">
        <ele>57.3358</ele>
        <time>2012-03-11T13:08:47Z</time>
      </trkpt>
      <trkpt lat="59.9926267" lon="17.7370875">
        <ele>60.7003</ele>
        <time>2012-03-11T13:08:52Z</time>
      </trkpt>
      <trkpt lat="59.9925675" lon="17.737149">
        <ele>62.6229</ele>
        <time>2012-03-11T13:08:55Z</time>
      </trkpt>
      <trkpt lat="59.9923883" lon="17.7373574">
        <ele>72.2362</ele>
        <time>2012-03-11T13:09:01Z</time>
      </trkpt>
      <trkpt lat="59.9922681" lon="17.7374634">
        <ele>78.004</ele>
        <time>2012-03-11T13:09:06Z</time>
      </trkpt>
      <trkpt lat="59.992238" lon="17.7375039">
        <ele>78.9655</ele>
        <time>2012-03-11T13:09:08Z</time>
      </trkpt>
      <trkpt lat="59.9920478" lon="17.737577">
        <ele>85.214</ele>
        <time>2012-03-11T13:09:14Z</time>
      </trkpt>
      <trkpt lat="59.9919111" lon="17.7376367">
        <ele>84.7334</ele>
        <time>2012-03-11T13:09:19Z</time>
      </trkpt>
      <trkpt lat="59.9918157" lon="17.7376763">
        <ele>79.446</ele>
        <time>2012-03-11T13:09:23Z</time>
      </trkpt>
      <trkpt lat="59.9917189" lon="17.7376913">
        <ele>77.0428</ele>
        <time>2012-03-11T13:09:27Z</time>
      </trkpt>
      <trkpt lat="59.9916109" lon="17.7376854">
        <ele>71.2749</ele>
        <time>2012-03-11T13:09:32Z</time>
      </trkpt>
      <trkpt lat="59.9914557" lon="17.7377322">
        <ele>70.3135</ele>
        <time>2012-03-11T13:09:38Z</time>
      </trkpt>
      <trkpt lat="59.9913399" lon="17.7377235">
        <ele>68.3909</ele>
        <time>2012-03-11T13:09:43Z</time>
      </trkpt>
      <trkpt lat="59.991251" lon="17.7377257">
        <ele>65.9877</ele>
        <time>2012-03-11T13:09:47Z</time>
      </trkpt>
      <trkpt lat="59.9912293" lon="17.7377268">
        <ele>64.5457</ele>
        <time>2012-03-11T13:09:48Z</time>
      </trkpt>
      <trkpt lat="59.9911459" lon="17.7377506">
        <ele>63.5844</ele>
        <time>2012-03-11T13:09:52Z</time>
      </trkpt>
      <trkpt lat="59.9910006" lon="17.7378474">
        <ele>66.4683</ele>
        <time>2012-03-11T13:09:57Z</time>
      </trkpt>
      <trkpt lat="59.9908653" lon="17.7379351">
        <ele>71.2749</ele>
        <time>2012-03-11T13:10:02Z</time>
      </trkpt>
      <trkpt lat="59.9908193" lon="17.7379928">
        <ele>72.7169</ele>
        <time>2012-03-11T13:10:04Z</time>
      </trkpt>
      <trkpt lat="59.9907256" lon="17.7380552">
        <ele>72.7169</ele>
        <time>2012-03-11T13:10:09Z</time>
      </trkpt>
      <trkpt lat="59.9905571" lon="17.7381958">
        <ele>77.0428</ele>
        <time>2012-03-11T13:10:16Z</time>
      </trkpt>
      <trkpt lat="59.9904447" lon="17.7382516">
        <ele>78.004</ele>
        <time>2012-03-11T13:10:20Z</time>
      </trkpt>
      <trkpt lat="59.9903122" lon="17.738338">
        <ele>78.004</ele>
        <time>2012-03-11T13:10:25Z</time>
      </trkpt>
      <trkpt lat="59.9902277" lon="17.7383555">
        <ele>72.2362</ele>
        <time>2012-03-11T13:10:30Z</time>
      </trkpt>
      <trkpt lat="59.99015" lon="17.7383842">
        <ele>68.3909</ele>
        <time>2012-03-11T13:10:34Z</time>
      </trkpt>
      <trkpt lat="59.9900645" lon="17.7384132">
        <ele>67.9103</ele>
        <time>2012-03-11T13:10:38Z</time>
      </trkpt>
      <trkpt lat="59.9899862" lon="17.7384181">
        <ele>66.4683</ele>
        <time>2012-03-11T13:10:42Z</time>
      </trkpt>
      <trkpt lat="59.9898595" lon="17.7384922">
        <ele>66.949</ele>
        <time>2012-03-11T13:10:47Z</time>
      </trkpt>
      <trkpt lat="59.9897386" lon="17.7385571">
        <ele>71.7555</ele>
        <time>2012-03-11T13:10:51Z</time>
      </trkpt>
      <trkpt lat="59.9896473" lon="17.7385783">
        <ele>69.8329</ele>
        <time>2012-03-11T13:10:55Z</time>
      </trkpt>
      <trkpt lat="59.9894972" lon="17.7386255">
        <ele>71.7555</ele>
        <time>2012-03-11T13:11:01Z</time>
      </trkpt>
      <trkpt lat="59.9894163" lon="17.7386323">
        <ele>70.3135</ele>
        <time>2012-03-11T13:11:05Z</time>
      </trkpt>
      <trkpt lat="59.9893174" lon="17.7386783">
        <ele>69.3523</ele>
        <time>2012-03-11T13:11:09Z</time>
      </trkpt>
      <trkpt lat="59.9892143" lon="17.7387125">
        <ele>68.3909</ele>
        <time>2012-03-11T13:11:14Z</time>
      </trkpt>
      <trkpt lat="59.9891896" lon="17.7387356">
        <ele>67.9103</ele>
        <time>2012-03-11T13:11:15Z</time>
      </trkpt>
      <trkpt lat="59.9890944" lon="17.7388159">
        <ele>65.9877</ele>
        <time>2012-03-11T13:11:21Z</time>
      </trkpt>
      <trkpt lat="59.9890137" lon="17.7388718">
        <ele>65.5071</ele>
        <time>2012-03-11T13:11:25Z</time>
      </trkpt>
      <trkpt lat="59.9888368" lon="17.739007">
        <ele>67.9103</ele>
        <time>2012-03-11T13:11:32Z</time>
      </trkpt>
      <trkpt lat="59.9887715" lon="17.7390709">
        <ele>67.4297</ele>
        <time>2012-03-11T13:11:35Z</time>
      </trkpt>
      <trkpt lat="59.9886667" lon="17.7391409">
        <ele>66.949</ele>
        <time>2012-03-11T13:11:40Z</time>
      </trkpt>
      <trkpt lat="59.9885546" lon="17.7392164">
        <ele>66.949</ele>
        <time>2012-03-11T13:11:45Z</time>
      </trkpt>
      <trkpt lat="59.9884364" lon="17.7392756">
        <ele>64.5457</ele>
        <time>2012-03-11T13:11:50Z</time>
      </trkpt>
      <trkpt lat="59.9882753" lon="17.7393496">
        <ele>65.9877</ele>
        <time>2012-03-11T13:11:55Z</time>
      </trkpt>
      <trkpt lat="59.9882124" lon="17.7393953">
        <ele>68.3909</ele>
        <time>2012-03-11T13:11:57Z</time>
      </trkpt>
      <trkpt lat="59.9880927" lon="17.7394212">
        <ele>68.3909</ele>
        <time>2012-03-11T13:12:02Z</time>
      </trkpt>
      <trkpt lat="59.9880127" lon="17.7394337">
        <ele>68.3909</ele>
        <time>2012-03-11T13:12:05Z</time>
      </trkpt>
      <trkpt lat="59.9878567" lon="17.7394553">
        <ele>70.3135</ele>
        <time>2012-03-11T13:12:10Z</time>
      </trkpt>
      <trkpt lat="59.987713" lon="17.7394771">
        <ele>68.3909</ele>
        <time>2012-03-11T13:12:15Z</time>
      </trkpt>
      <trkpt lat="59.9876315" lon="17.7394668">
        <ele>64.0651</ele>
        <time>2012-03-11T13:12:19Z</time>
      </trkpt>
      <trkpt lat="59.9874905" lon="17.7394784">
        <ele>65.0264</ele>
        <time>2012-03-11T13:12:24Z</time>
      </trkpt>
      <trkpt lat="59.9874035" lon="17.7394874">
        <ele>61.6617</ele>
        <time>2012-03-11T13:12:28Z</time>
      </trkpt>
      <trkpt lat="59.9872717" lon="17.7394911">
        <ele>65.0264</ele>
        <time>2012-03-11T13:12:33Z</time>
      </trkpt>
      <trkpt lat="59.9871539" lon="17.7395171">
        <ele>66.949</ele>
        <time>2012-03-11T13:12:37Z</time>
      </trkpt>
      <trkpt lat="59.9870802" lon="17.7395231">
        <ele>65.9877</ele>
        <time>2012-03-11T13:12:40Z</time>
      </trkpt>
      <trkpt lat="59.9869858" lon="17.7395242">
        <ele>64.5457</ele>
        <time>2012-03-11T13:12:44Z</time>
      </trkpt>
      <trkpt lat="59.9868901" lon="17.7394294">
        <ele>61.181</ele>
        <time>2012-03-11T13:12:49Z</time>
      </trkpt>
      <trkpt lat="59.9867891" lon="17.739319">
        <ele>57.8165</ele>
        <time>2012-03-11T13:12:54Z</time>
      </trkpt>
      <trkpt lat="59.9866938" lon="17.7392003">
        <ele>54.4518</ele>
        <time>2012-03-11T13:12:59Z</time>
      </trkpt>
      <trkpt lat="59.9865584" lon="17.7390596">
        <ele>52.5292</ele>
        <time>2012-03-11T13:13:05Z</time>
      </trkpt>
      <trkpt lat="59.9864601" lon="17.7389466">
        <ele>50.126</ele>
        <time>2012-03-11T13:13:10Z</time>
      </trkpt>
      <trkpt lat="59.9863478" lon="17.7388604">
        <ele>49.1646</ele>
        <time>2012-03-11T13:13:15Z</time>
      </trkpt>
      <trkpt lat="59.9862526" lon="17.7387802">
        <ele>51.5679</ele>
        <time>2012-03-11T13:13:19Z</time>
      </trkpt>
      <trkpt lat="59.9860942" lon="17.7386857">
        <ele>54.9324</ele>
        <time>2012-03-11T13:13:25Z</time>
      </trkpt>
      <trkpt lat="59.9860432" lon="17.7386648">
        <ele>55.4131</ele>
        <time>2012-03-11T13:13:27Z</time>
      </trkpt>
      <trkpt lat="59.9859098" lon="17.7385914">
        <ele>58.7777</ele>
        <time>2012-03-11T13:13:32Z</time>
      </trkpt>
      <trkpt lat="59.9858843" lon="17.7385706">
        <ele>58.7777</ele>
        <time>2012-03-11T13:13:33Z</time>
      </trkpt>
      <trkpt lat="59.9857484" lon="17.7384741">
        <ele>61.6617</ele>
        <time>2012-03-11T13:13:38Z</time>
      </trkpt>
      <trkpt lat="59.9856482" lon="17.7384664">
        <ele>62.1423</ele>
        <time>2012-03-11T13:13:42Z</time>
      </trkpt>
      <trkpt lat="59.9855397" lon="17.7384368">
        <ele>62.1423</ele>
        <time>2012-03-11T13:13:46Z</time>
      </trkpt>
      <trkpt lat="59.9854336" lon="17.7383981">
        <ele>60.2197</ele>
        <time>2012-03-11T13:13:50Z</time>
      </trkpt>
      <trkpt lat="59.9853252" lon="17.7383411">
        <ele>60.2197</ele>
        <time>2012-03-11T13:13:54Z</time>
      </trkpt>
      <trkpt lat="59.9851971" lon="17.7382882">
        <ele>61.6617</ele>
        <time>2012-03-11T13:13:59Z</time>
      </trkpt>
      <trkpt lat="59.9850807" lon="17.7382676">
        <ele>63.5844</ele>
        <time>2012-03-11T13:14:03Z</time>
      </trkpt>
      <trkpt lat="59.9849889" lon="17.7382354">
        <ele>62.6229</ele>
        <time>2012-03-11T13:14:07Z</time>
      </trkpt>
      <trkpt lat="59.9849103" lon="17.7382446">
        <ele>61.6617</ele>
        <time>2012-03-11T13:14:10Z</time>
      </trkpt>
      <trkpt lat="59.9847797" lon="17.7382314">
        <ele>64.0651</ele>
        <time>2012-03-11T13:14:15Z</time>
      </trkpt>
      <trkpt lat="59.9846327" lon="17.7381894">
        <ele>64.0651</ele>
        <time>2012-03-11T13:14:21Z</time>
      </trkpt>
      <trkpt lat="59.9845057" lon="17.7381691">
        <ele>63.5844</ele>
        <time>2012-03-11T13:14:26Z</time>
      </trkpt>
      <trkpt lat="59.9843859" lon="17.7381182">
        <ele>62.6229</ele>
        <time>2012-03-11T13:14:31Z</time>
      </trkpt>
      <trkpt lat="59.9843596" lon="17.738091">
        <ele>62.1423</ele>
        <time>2012-03-11T13:14:32Z</time>
      </trkpt>
      <trkpt lat="59.9842204" lon="17.7380577">
        <ele>59.7391</ele>
        <time>2012-03-11T13:14:38Z</time>
      </trkpt>
      <trkpt lat="59.9841815" lon="17.7380344">
        <ele>57.8165</ele>
        <time>2012-03-11T13:14:40Z</time>
      </trkpt>
      <trkpt lat="59.9840644" lon="17.7380019">
        <ele>56.8551</ele>
        <time>2012-03-11T13:14:45Z</time>
      </trkpt>
      <trkpt lat="59.9839203" lon="17.7380002">
        <ele>62.1423</ele>
        <time>2012-03-11T13:14:50Z</time>
      </trkpt>
      <trkpt lat="59.9838582" lon="17.7380316">
        <ele>62.6229</ele>
        <time>2012-03-11T13:14:52Z</time>
      </trkpt>
      <trkpt lat="59.983708" lon="17.7380955">
        <ele>64.0651</ele>
        <time>2012-03-11T13:14:57Z</time>
      </trkpt>
      <trkpt lat="59.9836111" lon="17.7380897">
        <ele>64.5457</ele>
        <time>2012-03-11T13:15:01Z</time>
      </trkpt>
      <trkpt lat="59.9835897" lon="17.7380817">
        <ele>64.0651</ele>
        <time>2012-03-11T13:15:02Z</time>
      </trkpt>
      <trkpt lat="59.983398" lon="17.7381442">
        <ele>64.5457</ele>
        <time>2012-03-11T13:15:09Z</time>
      </trkpt>
      <trkpt lat="59.9832582" lon="17.7382173">
        <ele>68.3909</ele>
        <time>2012-03-11T13:15:13Z</time>
      </trkpt>
      <trkpt lat="59.983149" lon="17.7382573">
        <ele>71.2749</ele>
        <time>2012-03-11T13:15:16Z</time>
      </trkpt>
      <trkpt lat="59.9830304" lon="17.738282">
        <ele>71.2749</ele>
        <time>2012-03-11T13:15:20Z</time>
      </trkpt>
      <trkpt lat="59.9829071" lon="17.7382593">
        <ele>69.3523</ele>
        <time>2012-03-11T13:15:26Z</time>
      </trkpt>
      <trkpt lat="59.982799" lon="17.7382525">
        <ele>67.9103</ele>
        <time>2012-03-11T13:15:31Z</time>
      </trkpt>
      <trkpt lat="59.9826563" lon="17.7382055">
        <ele>64.5457</ele>
        <time>2012-03-11T13:15:37Z</time>
      </trkpt>
      <trkpt lat="59.9826075" lon="17.7381898">
        <ele>64.5457</ele>
        <time>2012-03-11T13:15:39Z</time>
      </trkpt>
      <trkpt lat="59.9825171" lon="17.7381587">
        <ele>62.6229</ele>
        <time>2012-03-11T13:15:43Z</time>
      </trkpt>
    </trkseg>
  </trk>
</gpx>